Time;durP1;ratioP1;P1;durP2;ratioP2;P2;SDS_P1;SDS_P2;PMS_P1;PMS_P2;Temp;Humidity;BMP_temperature;BMP_pressure;BME280_temperature;BME280_humidity;BME280_pressure;Samples;Min_cycle;Max_cycle;Signal;HPM_P1;HPM_P2
2021/09/07 00:01:06;;;;;;;;;11.25;10.00;;;;;21.86;46.68;101307.63;4998013;28;45861;-63
2021/09/07 00:03:31;;;;;;;;;14.00;12.00;;;;;21.82;46.95;101308.81;4996616;28;46065;-61
2021/09/07 00:05:56;;;;;;;;;13.25;11.00;;;;;21.77;47.05;101307.44;4997953;28;45256;-61
2021/09/07 00:08:22;;;;;;;;;13.25;13.25;;;;;21.76;47.28;101309.28;4980286;28;45532;-61
2021/09/07 00:10:47;;;;;;;;;12.50;10.75;;;;;21.70;47.25;101299.03;4980476;28;45361;-61
2021/09/07 00:13:12;;;;;;;;;14.50;13.25;;;;;21.72;47.52;101314.00;4997542;28;45383;-61
2021/09/07 00:15:38;;;;;;;;;15.50;12.50;;;;;21.69;47.71;101310.69;4997804;28;45429;-61
2021/09/07 00:18:03;;;;;;;;;18.25;13.25;;;;;21.67;47.31;101316.19;4997881;28;45605;-61
2021/09/07 00:20:29;;;;;;;;;10.75;10.75;;;;;21.62;47.64;101312.97;4997610;28;46373;-61
2021/09/07 00:22:54;;;;;;;;;16.25;14.25;;;;;21.61;47.49;101311.25;4996280;28;45466;-61
2021/09/07 00:25:19;;;;;;;;;11.25;11.00;;;;;21.59;47.54;101313.22;4998119;28;45473;-61
2021/09/07 00:27:45;;;;;;;;;14.75;11.25;;;;;21.57;47.53;101310.63;4997785;28;45554;-61
2021/09/07 00:30:11;;;;;;;;;12.50;12.00;;;;;21.55;47.48;101303.69;4997040;28;46145;-61
2021/09/07 00:32:36;;;;;;;;;15.25;13.50;;;;;21.53;47.90;101309.16;4997520;28;45404;-60
2021/09/07 00:35:02;;;;;;;;;14.50;11.00;;;;;21.52;47.64;101304.78;4995875;28;45449;-60
2021/09/07 00:37:27;;;;;;;;;19.00;15.00;;;;;21.54;47.61;101312.69;4997767;28;45638;-61
2021/09/07 00:39:53;;;;;;;;;12.00;12.00;;;;;21.53;47.50;101305.63;4995821;28;46931;-61
2021/09/07 00:42:18;;;;;;;;;14.75;12.25;;;;;21.52;47.47;101303.94;4997585;28;45318;-61
2021/09/07 00:44:43;;;;;;;;;14.00;13.00;;;;;21.49;47.68;101304.16;4997378;28;45294;-61
2021/09/07 00:47:09;;;;;;;;;16.00;14.75;;;;;21.47;47.68;101295.41;4979736;28;45349;-60
2021/09/07 00:49:38;;;;;;;;;17.25;16.00;;;;;21.45;47.77;101299.03;4995502;28;47316;-60
2021/09/07 00:52:05;;;;;;;;;14.25;11.75;;;;;21.44;47.78;101299.13;4997153;28;45353;-61
2021/09/07 00:54:32;;;;;;;;;12.00;10.25;;;;;21.40;47.51;101292.31;4997132;28;45399;-61
2021/09/07 00:57:01;;;;;;;;;17.00;14.50;;;;;21.41;47.74;101292.22;4995712;28;45601;-61
2021/09/07 00:59:27;;;;;;;;;14.00;11.50;;;;;21.41;47.83;101292.22;4996690;28;45322;-61
2021/09/07 01:01:52;;;;;;;;;14.50;13.00;;;;;21.38;47.78;101286.22;4997059;28;45534;-62
2021/09/07 01:04:18;;;;;;;;;11.75;11.00;;;;;21.26;48.03;101272.78;4995934;28;45481;-61
2021/09/07 01:06:44;;;;;;;;;12.25;12.25;;;;;21.34;47.97;101280.25;4995185;28;45505;-60
2021/09/07 01:09:10;;;;;;;;;12.75;11.50;;;;;21.32;47.88;101282.19;4996820;28;45870;-61
2021/09/07 01:11:36;;;;;;;;;12.75;12.25;;;;;21.31;48.08;101277.81;4996749;28;45536;-61
2021/09/07 01:14:02;;;;;;;;;14.25;11.25;;;;;21.31;48.24;101277.81;4996708;28;45466;-60
2021/09/07 01:16:27;;;;;;;;;13.00;12.00;;;;;21.28;48.49;101270.03;4997043;28;45588;-61
2021/09/07 01:18:53;;;;;;;;;13.25;12.50;;;;;21.26;48.34;101263.94;4995529;28;46183;-60
2021/09/07 01:21:19;;;;;;;;;14.75;12.00;;;;;21.24;48.52;101261.34;4996576;28;45452;-61
2021/09/07 01:23:46;;;;;;;;;23.50;21.00;;;;;21.21;48.99;101268.78;4979014;28;45373;-60
2021/09/07 01:26:15;;;;;;;;;14.75;11.00;;;;;21.21;49.19;101269.63;4995447;28;45236;-61
2021/09/07 01:28:41;;;;;;;;;15.00;13.00;;;;;21.17;49.12;101278.84;4996281;28;45537;-61
2021/09/07 01:31:07;;;;;;;;;23.25;14.25;;;;;21.11;49.43;101266.75;4995356;28;45361;-60
2021/09/07 01:33:34;;;;;;;;;13.50;13.50;;;;;21.10;49.81;101277.59;4996548;28;45397;-61
2021/09/07 01:36:00;;;;;;;;;15.00;14.25;;;;;21.05;50.10;101266.38;4996742;28;45419;-62
2021/09/07 01:38:27;;;;;;;;;16.25;14.00;;;;;21.00;49.74;101261.34;4996672;28;45345;-61
2021/09/07 01:40:53;;;;;;;;;15.50;14.25;;;;;20.95;50.28;101259.03;4996517;28;45292;-63
2021/09/07 01:43:18;;;;;;;;;21.50;17.75;;;;;20.91;50.36;101257.56;4962427;28;45286;-61
2021/09/07 01:45:48;;;;;;;;;14.50;14.00;;;;;20.86;50.95;101259.72;4978637;28;45365;-62
2021/09/07 01:48:15;;;;;;;;;15.50;14.50;;;;;20.81;50.64;101257.34;4996190;28;45289;-61
2021/09/07 01:50:41;;;;;;;;;17.25;13.50;;;;;20.77;50.97;101255.84;4995982;28;45348;-61
2021/09/07 01:53:06;;;;;;;;;11.00;11.00;;;;;20.71;51.06;101256.28;4996264;28;45346;-61
2021/09/07 01:55:32;;;;;;;;;15.25;13.25;;;;;20.66;51.18;101251.25;4996421;28;45521;-61
2021/09/07 01:57:57;;;;;;;;;13.00;12.25;;;;;20.66;51.02;101258.44;4996076;28;45723;-61
2021/09/07 02:00:23;;;;;;;;;16.00;12.75;;;;;20.60;51.30;101248.19;4996114;28;45429;-60
2021/09/07 02:02:48;;;;;;;;;15.75;14.25;;;;;20.61;51.14;101255.25;4978356;28;45365;-61
2021/09/07 02:05:14;;;;;;;;;12.50;12.50;;;;;20.57;51.28;101260.81;4995935;28;45421;-61
2021/09/07 02:07:39;;;;;;;;;18.00;16.00;;;;;20.54;51.11;101249.47;4995017;28;46479;-61
2021/09/07 02:10:06;;;;;;;;;16.75;16.00;;;;;20.54;51.89;101265.50;4995544;28;45421;-61
2021/09/07 02:12:32;;;;;;;;;13.75;13.00;;;;;20.51;51.77;101261.25;4996062;28;45336;-60
2021/09/07 02:14:57;;;;;;;;;14.75;13.50;;;;;20.46;51.62;101255.38;4996531;28;45462;-60
2021/09/07 02:17:24;;;;;;;;;11.50;10.25;;;;;20.44;51.87;101257.31;4978117;28;46351;-60
2021/09/07 02:19:53;;;;;;;;;15.00;15.00;;;;;20.40;52.01;101253.16;4996050;28;45333;-61
2021/09/07 02:22:19;;;;;;;;;13.75;13.50;;;;;20.37;52.52;101240.84;4995982;28;45372;-60
2021/09/07 02:24:45;;;;;;;;;18.00;14.25;;;;;20.36;51.97;101246.31;4994617;28;45499;-61
2021/09/07 02:27:10;;;;;;;;;12.25;12.25;;;;;20.33;51.90;101247.38;4994249;28;46967;-61
2021/09/07 02:29:35;;;;;;;;;16.50;15.00;;;;;20.34;52.17;101248.25;4994116;28;45793;-60
2021/09/07 02:32:01;;;;;;;;;15.75;14.00;;;;;20.27;52.50;101238.00;4995724;28;45349;-61
2021/09/07 02:34:26;;;;;;;;;14.75;13.50;;;;;20.31;53.09;101243.97;4996154;28;45377;-61
2021/09/07 02:36:52;;;;;;;;;17.25;14.25;;;;;20.31;52.63;101235.94;4995472;28;46674;-61
2021/09/07 02:39:17;;;;;;;;;12.00;12.00;;;;;20.29;52.88;101232.53;4995506;28;45391;-61
2021/09/07 02:41:42;;;;;;;;;13.50;13.00;;;;;20.17;52.54;101207.56;4995852;28;45422;-61
2021/09/07 02:44:09;;;;;;;;;17.25;16.25;;;;;20.20;52.29;101206.47;4995685;28;45537;-62
2021/09/07 02:46:34;;;;;;;;;15.25;12.25;;;;;20.28;52.62;101229.03;4995359;28;46460;-61
2021/09/07 02:49:00;;;;;;;;;12.75;12.50;;;;;20.31;52.16;101222.59;4995192;28;45381;-61
2021/09/07 02:51:25;;;;;;;;;17.00;14.00;;;;;20.27;52.38;101219.31;4995965;28;45389;-61
2021/09/07 02:53:50;;;;;;;;;17.50;14.25;;;;;20.25;52.22;101205.22;4995565;28;45232;-62
2021/09/07 02:56:16;;;;;;;;;17.00;16.00;;;;;20.29;52.12;101219.19;4995322;28;45624;-60
2021/09/07 02:58:41;;;;;;;;;15.25;14.25;;;;;20.26;52.35;101204.25;4995115;28;45338;-62
2021/09/07 03:01:06;;;;;;;;;16.25;14.75;;;;;20.29;52.23;101214.72;4977427;28;45365;-61
2021/09/07 03:03:33;;;;;;;;;17.25;13.75;;;;;20.28;52.63;101213.00;4995509;28;45337;-62
2021/09/07 03:06:00;;;;;;;;;14.00;13.75;;;;;20.27;51.93;101210.41;4995495;28;45396;-60
2021/09/07 03:08:25;;;;;;;;;16.25;15.25;;;;;20.27;52.56;101203.28;4995115;28;45357;-62
2021/09/07 03:10:51;;;;;;;;;17.25;16.25;;;;;20.25;52.35;101202.53;4995000;28;45437;-61
2021/09/07 03:13:16;;;;;;;;;16.25;14.75;;;;;20.25;52.65;101204.34;4995374;28;45436;-60
2021/09/07 03:15:42;;;;;;;;;15.50;15.00;;;;;20.25;52.67;101204.34;4995001;28;45528;-62
2021/09/07 03:18:09;;;;;;;;;14.50;12.25;;;;;20.23;52.19;101192.91;4994686;28;45290;-61
2021/09/07 03:20:34;;;;;;;;;14.50;14.00;;;;;20.21;52.17;101197.50;4994119;28;45311;-61
2021/09/07 03:23:00;;;;;;;;;21.25;20.25;;;;;20.22;52.60;101210.78;4995380;28;45180;-61
2021/09/07 03:25:25;;;;;;;;;12.00;12.00;;;;;20.20;52.95;101209.16;4994764;28;46690;-60
2021/09/07 03:27:50;;;;;;;;;16.75;15.25;;;;;20.18;53.51;101203.94;4994803;28;45361;-60
2021/09/07 03:30:16;;;;;;;;;16.75;15.75;;;;;20.16;53.24;101207.66;4977095;28;45404;-61
2021/09/07 03:32:41;;;;;;;;;14.25;14.00;;;;;20.09;53.81;101209.91;4995191;28;45354;-61
2021/09/07 03:35:07;;;;;;;;;17.50;15.00;;;;;19.99;53.93;101205.22;4993469;28;47043;-61
2021/09/07 03:37:33;;;;;;;;;15.00;14.75;;;;;19.91;53.71;101196.88;4994430;28;45550;-61
2021/09/07 03:39:58;;;;;;;;;20.00;16.00;;;;;19.89;54.23;101203.28;4994907;28;45360;-60
2021/09/07 03:42:24;;;;;;;;;17.00;15.00;;;;;19.81;54.45;101191.31;4994969;28;45345;-61
2021/09/07 03:44:50;;;;;;;;;16.50;15.50;;;;;19.79;54.63;101195.91;4994456;28;45575;-61
2021/09/07 03:47:15;;;;;;;;;14.25;14.25;;;;;19.78;54.71;101199.53;4994360;28;45441;-61
2021/09/07 03:49:40;;;;;;;;;18.75;16.25;;;;;19.75;54.55;101196.22;4994453;28;45351;-60
2021/09/07 03:52:07;;;;;;;;;15.25;14.25;;;;;19.71;54.97;101193.75;4995023;28;45446;-62
2021/09/07 03:54:32;;;;;;;;;15.00;15.00;;;;;19.66;54.84;101195.91;4977308;28;45577;-61
2021/09/07 03:56:58;;;;;;;;;13.25;13.25;;;;;19.60;55.00;101190.13;4976969;28;45318;-62
2021/09/07 03:59:23;;;;;;;;;14.25;13.75;;;;;19.52;55.54;101182.66;4994771;28;45218;-60
2021/09/07 04:01:48;;;;;;;;;25.75;21.75;;;;;19.54;55.56;101188.75;4994845;28;45496;-60
2021/09/07 04:04:16;;;;;;;;;15.50;14.25;;;;;19.51;55.24;101184.47;4994156;28;45466;-61
2021/09/07 04:06:42;;;;;;;;;20.00;18.50;;;;;19.48;55.42;101184.66;4994193;28;45327;-61
2021/09/07 04:09:07;;;;;;;;;17.25;14.50;;;;;19.48;55.66;101186.50;4994439;28;45383;-59
2021/09/07 04:11:33;;;;;;;;;16.50;14.25;;;;;19.45;55.55;101187.53;4994737;28;45678;-61
2021/09/07 04:13:58;;;;;;;;;16.25;15.75;;;;;19.42;55.66;101190.41;4994235;28;46206;-60
2021/09/07 04:16:24;;;;;;;;;22.25;18.25;;;;;19.41;55.81;101191.38;4992900;28;45297;-61
2021/09/07 04:18:49;;;;;;;;;15.25;15.25;;;;;19.39;55.95;101195.97;4994326;28;45895;-60
2021/09/07 04:21:16;;;;;;;;;19.00;16.00;;;;;19.37;55.92;101196.09;4994363;28;45708;-61
2021/09/07 04:23:41;;;;;;;;;16.00;16.00;;;;;19.37;56.25;101201.41;4994052;28;45882;-60
2021/09/07 04:26:07;;;;;;;;;19.50;15.75;;;;;19.33;56.23;101202.59;4994053;28;45389;-60
2021/09/07 04:28:32;;;;;;;;;18.75;17.75;;;;;19.31;56.42;101209.84;4994547;28;45735;-60
2021/09/07 04:30:57;;;;;;;;;17.25;16.25;;;;;19.27;56.29;101206.50;4995288;28;45369;-61
2021/09/07 04:33:23;;;;;;;;;19.00;17.00;;;;;19.26;56.55;101214.63;4997232;28;47029;-60
2021/09/07 04:35:48;;;;;;;;;21.00;19.00;;;;;19.20;56.40;101210.53;4997174;28;45217;-62
2021/09/07 04:38:14;;;;;;;;;22.00;17.25;;;;;19.18;56.56;101222.28;4979574;28;45618;-60
2021/09/07 04:40:39;;;;;;;;;18.50;17.50;;;;;19.15;56.83;101222.50;4997599;28;45322;-61
2021/09/07 04:43:04;;;;;;;;;18.00;15.50;;;;;19.11;56.89;101225.38;4997544;28;46071;-60
2021/09/07 04:45:30;;;;;;;;;18.50;14.00;;;;;19.10;57.09;101233.44;4997234;28;45403;-61
2021/09/07 04:47:55;;;;;;;;;17.50;16.25;;;;;19.05;57.14;101228.41;4997392;28;45894;-60
2021/09/07 04:50:20;;;;;;;;;20.25;18.25;;;;;19.03;57.27;101224.97;4995874;28;45251;-61
2021/09/07 04:52:46;;;;;;;;;18.25;14.25;;;;;18.96;57.50;101211.19;4997024;28;46088;-60
2021/09/07 04:55:11;;;;;;;;;18.00;18.00;;;;;18.96;57.43;101221.84;4997265;28;45519;-61
2021/09/07 04:57:36;;;;;;;;;19.25;17.75;;;;;18.93;57.82;101227.38;4997153;28;45300;-61
2021/09/07 05:00:02;;;;;;;;;17.75;15.75;;;;;18.91;57.38;101225.75;4997431;28;45343;-60
2021/09/07 05:02:33;;;;;;;;;18.25;17.25;;;;;18.90;57.99;101229.38;4996684;28;46611;-62
2021/09/07 05:05:02;;;;;;;;;19.25;15.50;;;;;18.87;58.28;101225.13;4996646;28;45476;-61
2021/09/07 05:07:27;;;;;;;;;20.75;16.75;;;;;18.83;58.01;101215.63;4996800;28;45356;-61
2021/09/07 05:09:54;;;;;;;;;21.50;19.00;;;;;18.81;57.89;101220.19;4996706;28;45499;-61
2021/09/07 05:12:20;;;;;;;;;19.50;18.25;;;;;18.80;58.06;101223.81;4996820;28;45445;-61
2021/09/07 05:14:45;;;;;;;;;20.50;19.75;;;;;18.82;58.12;101232.56;4978583;28;45288;-61
2021/09/07 05:17:11;;;;;;;;;21.25;19.50;;;;;18.79;58.33;101222.94;4996791;28;45459;-61
2021/09/07 05:19:36;;;;;;;;;21.75;20.00;;;;;18.77;58.63;101229.34;4979000;28;45570;-61
2021/09/07 05:22:02;;;;;;;;;26.25;22.00;;;;;18.77;58.43;101226.69;4996341;28;46077;-61
2021/09/07 05:24:28;;;;;;;;;27.75;22.50;;;;;18.74;58.50;101226.88;4995004;28;45363;-63
2021/09/07 05:26:53;;;;;;;;;20.75;18.50;;;;;18.77;58.61;101240.00;4996662;28;45198;-61
2021/09/07 05:29:18;;;;;;;;;24.75;20.50;;;;;18.77;58.72;101234.66;4996557;28;45272;-61
2021/09/07 05:31:44;;;;;;;;;22.75;20.75;;;;;18.66;58.98;101214.03;4978368;28;46304;-61
2021/09/07 05:34:10;;;;;;;;;24.50;21.00;;;;;18.78;58.69;101233.72;4978518;28;45428;-61
2021/09/07 05:36:35;;;;;;;;;26.50;21.75;;;;;18.81;58.82;101238.84;4997019;28;45410;-60
2021/09/07 05:39:01;;;;;;;;;20.25;18.25;;;;;18.82;58.87;101238.72;4995301;28;45222;-61
2021/09/07 05:41:26;;;;;;;;;20.50;18.25;;;;;18.83;58.69;101232.44;4996372;28;46358;-61
2021/09/07 05:43:52;;;;;;;;;22.75;21.75;;;;;18.83;58.83;101232.44;4995498;28;45285;-62
2021/09/07 05:46:17;;;;;;;;;26.00;20.50;;;;;18.86;58.54;101234.06;4994874;28;45275;-61
2021/09/07 05:48:43;;;;;;;;;22.75;21.00;;;;;18.90;58.77;101240.91;4996416;28;45558;-62
2021/09/07 05:51:08;;;;;;;;;26.00;21.75;;;;;18.94;59.33;101238.88;4996059;28;46286;-61
2021/09/07 05:53:34;;;;;;;;;22.75;22.00;;;;;18.96;59.02;101232.50;4996310;28;45357;-61
2021/09/07 05:55:59;;;;;;;;;24.50;21.50;;;;;19.03;58.92;101250.81;4994849;28;45449;-62
2021/09/07 05:58:25;;;;;;;;;29.00;27.00;;;;;19.01;58.78;101240.22;4996364;28;45542;-60
2021/09/07 06:00:50;;;;;;;;;27.75;22.75;;;;;19.07;58.44;101247.81;4978483;28;47422;-61
2021/09/07 06:03:15;;;;;;;;;27.00;21.25;;;;;19.04;58.49;101237.34;4996276;28;45380;-62
2021/09/07 06:05:41;;;;;;;;;23.50;20.75;;;;;19.14;58.44;101244.78;4996238;28;45649;-62
2021/09/07 06:08:06;;;;;;;;;21.75;20.00;;;;;19.16;58.44;101243.72;4996799;28;45443;-62
2021/09/07 06:10:31;;;;;;;;;27.25;23.25;;;;;19.20;58.25;101250.53;4995681;28;45558;-61
2021/09/07 06:12:57;;;;;;;;;27.75;23.50;;;;;19.23;58.57;101245.00;4996143;28;45407;-61
2021/09/07 06:15:22;;;;;;;;;24.00;23.00;;;;;19.28;58.55;101244.72;4978204;28;45486;-61
2021/09/07 06:17:48;;;;;;;;;27.50;23.00;;;;;19.28;58.75;101244.72;4996210;28;45452;-61
2021/09/07 06:20:13;;;;;;;;;24.50;21.25;;;;;19.29;58.07;101233.09;4994152;28;47497;-64
2021/09/07 06:22:38;;;;;;;;;23.75;21.50;;;;;19.37;58.56;101237.91;4978145;28;45296;-62
2021/09/07 06:25:06;;;;;;;;;26.25;24.75;;;;;19.41;58.53;101234.94;4995785;28;45319;-63
2021/09/07 06:27:31;;;;;;;;;25.50;21.50;;;;;19.44;58.43;101228.53;4996087;28;45566;-62
2021/09/07 06:29:57;;;;;;;;;29.50;24.00;;;;;19.49;58.29;101237.06;4995589;28;46209;-62
2021/09/07 06:32:22;;;;;;;;;31.00;27.50;;;;;19.52;58.91;101236.03;4995196;28;45354;-64
2021/09/07 06:34:48;;;;;;;;;33.50;29.75;;;;;19.57;58.39;101244.56;4977985;28;45606;-61
2021/09/07 06:37:13;;;;;;;;;32.50;29.00;;;;;19.62;57.90;101247.78;4977865;28;45270;-62
2021/09/07 06:39:38;;;;;;;;;40.25;32.50;;;;;19.68;58.13;101252.69;4995317;28;45693;-61
2021/09/07 06:42:05;;;;;;;;;45.25;33.50;;;;;19.73;58.06;101243.53;4977508;28;45341;-63
2021/09/07 06:44:31;;;;;;;;;36.25;30.50;;;;;19.79;58.32;101245.75;4995325;28;45394;-60
2021/09/07 06:46:56;;;;;;;;;25.50;24.25;;;;;19.82;57.45;101243.75;4995477;28;45358;-65
2021/09/07 06:49:22;;;;;;;;;28.00;27.25;;;;;19.84;57.17;101247.16;4994762;28;45356;-63
2021/09/07 06:51:47;;;;;;;;;34.00;29.50;;;;;19.85;57.20;101246.22;4994644;28;45408;-62
2021/09/07 06:54:13;;;;;;;;;32.50;26.50;;;;;19.86;57.44;101247.03;4993633;28;45289;-64
2021/09/07 06:56:38;;;;;;;;;31.00;27.25;;;;;19.91;57.51;101252.13;4995597;28;45524;-61
2021/09/07 06:59:04;;;;;;;;;35.75;28.75;;;;;19.92;57.29;101251.16;4994745;28;45370;-64
2021/09/07 07:01:29;;;;;;;;;24.50;24.25;;;;;19.96;57.28;101255.31;4976767;28;45246;-64
2021/09/07 07:03:54;;;;;;;;;34.75;31.75;;;;;19.97;57.23;101244.53;4994950;28;45298;-64
2021/09/07 07:06:20;;;;;;;;;40.00;34.00;;;;;20.04;57.12;101252.09;4994824;28;45489;-60
2021/09/07 07:08:45;;;;;;;;;59.75;47.00;;;;;20.08;56.89;101259.81;4994281;28;45778;-61
2021/09/07 07:11:11;;;;;;;;;66.50;52.25;;;;;20.14;56.89;101262.03;4994866;28;45191;-63
2021/09/07 07:13:36;;;;;;;;;25.25;24.25;;;;;20.21;56.74;101262.47;4994679;28;45405;-64
2021/09/07 07:16:02;;;;;;;;;22.75;21.50;;;;;20.27;56.82;101261.19;4994563;28;45631;-64
2021/09/07 07:18:27;;;;;;;;;25.50;25.50;;;;;20.31;56.21;101261.81;4994176;28;46238;-66
2021/09/07 07:20:52;;;;;;;;;43.50;33.75;;;;;20.35;56.16;101250.81;4994644;28;45259;-62
2021/09/07 07:23:18;;;;;;;;;35.50;30.75;;;;;20.39;56.04;101256.78;4995102;28;45559;-62
2021/09/07 07:25:43;;;;;;;;;31.25;26.50;;;;;20.51;55.91;101266.59;4977197;28;45838;-60
2021/09/07 07:28:09;;;;;;;;;26.00;23.50;;;;;20.58;55.45;101262.53;4994766;28;45981;-60
2021/09/07 07:30:34;;;;;;;;;38.00;31.75;;;;;20.70;55.52;101273.28;4994212;28;45533;-61
2021/09/07 07:33:00;;;;;;;;;30.00;24.25;;;;;20.78;55.19;101270.06;4992991;28;45404;-61
2021/09/07 07:35:26;;;;;;;;;33.50;29.00;;;;;20.90;55.12;101265.66;4993225;28;45350;-62
2021/09/07 07:37:51;;;;;;;;;24.50;21.25;;;;;21.01;54.65;101273.75;4976250;28;47094;-61
2021/09/07 07:40:17;;;;;;;;;25.50;21.25;;;;;21.15;54.19;101281.59;4994307;28;45492;-61
2021/09/07 07:42:42;;;;;;;;;23.25;19.00;;;;;21.26;53.48;101283.50;4994767;28;45377;-62
2021/09/07 07:45:08;;;;;;;;;32.50;29.00;;;;;21.41;53.86;101281.50;4994638;28;45660;-63
2021/09/07 07:47:33;;;;;;;;;22.75;21.75;;;;;21.54;52.86;101261.84;4994125;28;46573;-60
2021/09/07 07:49:59;;;;;;;;;26.25;24.50;;;;;21.67;52.58;101277.84;4993985;28;45258;-61
2021/09/07 07:52:24;;;;;;;;;23.00;22.25;;;;;21.80;52.46;101272.41;4993971;28;45309;-62
2021/09/07 07:54:50;;;;;;;;;29.50;23.50;;;;;21.93;52.40;101270.47;4976509;28;45428;-63
2021/09/07 07:57:17;;;;;;;;;29.75;22.25;;;;;22.04;51.97;101267.81;4994302;28;45294;-61
2021/09/07 07:59:42;;;;;;;;;28.75;26.50;;;;;22.15;51.97;101271.47;4994303;28;45239;-61
2021/09/07 08:02:08;;;;;;;;;24.00;22.25;;;;;22.26;52.01;101266.13;4976424;28;45182;-62
2021/09/07 08:04:33;;;;;;;;;24.50;22.25;;;;;22.41;51.72;101273.94;4994624;28;45291;-61
2021/09/07 08:06:58;;;;;;;;;26.75;26.75;;;;;22.49;50.79;101274.22;4978773;28;46734;-62
2021/09/07 08:09:25;;;;;;;;;24.00;23.75;;;;;22.60;51.18;101282.25;4997581;28;45336;-63
2021/09/07 08:11:50;;;;;;;;;25.50;23.25;;;;;22.67;51.13;101282.59;4997747;28;45261;-62
2021/09/07 08:14:16;;;;;;;;;22.50;20.50;;;;;22.74;50.64;101274.91;4980297;28;45928;-61
2021/09/07 08:16:42;;;;;;;;;25.25;21.00;;;;;22.82;50.78;101282.34;4996534;28;48220;-62
2021/09/07 08:19:07;;;;;;;;;32.75;26.75;;;;;22.89;51.00;101281.72;4996059;28;45371;-63
2021/09/07 08:21:33;;;;;;;;;24.50;21.50;;;;;23.02;49.94;101276.19;4997633;28;45449;-61
2021/09/07 08:23:58;;;;;;;;;21.00;19.25;;;;;23.16;48.49;101277.72;4997745;28;45259;-61
2021/09/07 08:26:23;;;;;;;;;18.75;15.75;;;;;23.30;47.08;101270.38;4997381;28;45361;-62
2021/09/07 08:28:49;;;;;;;;;21.00;17.50;;;;;23.42;46.63;101276.56;4996082;28;45294;-62
2021/09/07 08:31:14;;;;;;;;;17.25;16.00;;;;;23.53;46.75;101270.31;4997609;28;45557;-63
2021/09/07 08:33:40;;;;;;;;;26.25;21.50;;;;;23.67;46.87;101275.34;4997534;28;45306;-63
2021/09/07 08:36:05;;;;;;;;;19.75;18.00;;;;;23.80;46.29;101277.81;4997062;28;46007;-61
2021/09/07 08:38:31;;;;;;;;;26.50;19.75;;;;;23.92;45.68;101278.63;4997138;28;45437;-63
2021/09/07 08:40:58;;;;;;;;;19.75;16.25;;;;;24.02;44.92;101274.19;4997571;28;45270;-62
2021/09/07 08:43:24;;;;;;;;;16.50;16.50;;;;;24.13;44.39;101283.13;4997559;28;45317;-62
2021/09/07 08:45:55;;;;;;;;;14.75;14.25;;;;;24.24;44.36;101279.53;4997126;28;45393;-63
2021/09/07 08:48:22;;;;;;;;;15.75;14.00;;;;;24.29;43.64;101272.75;4997046;28;45343;-62
2021/09/07 08:50:49;;;;;;;;;17.00;14.75;;;;;24.43;43.85;101279.59;4997165;28;45211;-63
2021/09/07 08:53:14;;;;;;;;;21.25;19.25;;;;;24.56;43.23;101283.91;4995707;28;45317;-62
2021/09/07 08:55:40;;;;;;;;;21.25;20.00;;;;;24.64;43.25;101278.69;4997201;28;46318;-64
2021/09/07 08:58:06;;;;;;;;;15.50;15.25;;;;;24.74;42.87;101273.38;4997103;28;45386;-62
2021/09/07 09:00:34;;;;;;;;;20.00;18.00;;;;;24.88;43.19;101277.50;4995502;28;45320;-62
2021/09/07 09:03:08;;;;;;;;;21.25;17.00;;;;;25.01;42.68;101279.94;4996703;28;45375;-61
2021/09/07 09:05:35;;;;;;;;;15.00;15.00;;;;;25.14;42.53;101283.19;4996464;28;47012;-61
2021/09/07 09:08:01;;;;;;;;;15.50;14.75;;;;;25.26;42.12;101285.75;4996183;28;45302;-61
2021/09/07 09:10:27;;;;;;;;;14.25;13.50;;;;;25.39;41.63;101275.53;4996101;28;45390;-61
2021/09/07 09:13:11;;;;;;;;;23.25;18.50;;;;;25.55;42.15;101283.09;4996500;28;45298;-61
2021/09/07 09:15:38;;;;;;;;;19.25;17.50;;;;;25.61;40.78;101279.00;4995999;28;45725;-61
2021/09/07 09:18:09;;;;;;;;;13.00;13.00;;;;;25.67;40.79;101286.50;4977462;28;45584;-61
2021/09/07 09:20:35;;;;;;;;;16.50;14.00;;;;;25.72;40.65;101294.13;4996120;28;45373;-61
2021/09/07 09:23:01;;;;;;;;;16.75;15.75;;;;;25.78;40.94;101286.34;4996320;28;45209;-61
2021/09/07 09:25:35;;;;;;;;;16.00;14.25;;;;;25.84;41.10;101282.19;4995979;28;46973;-61
2021/09/07 09:28:01;;;;;;;;;14.25;13.75;;;;;25.93;40.59;101284.00;4996082;28;45513;-61
2021/09/07 09:30:46;;;;;;;;;14.75;14.25;;;;;25.98;40.39;101280.91;4996191;28;45316;-62
2021/09/07 09:33:14;;;;;;;;;19.25;15.50;;;;;26.10;40.06;101289.66;4995138;28;45289;-61
2021/09/07 09:35:48;;;;;;;;;17.50;13.50;;;;;26.20;40.56;101279.72;4994540;28;45389;-62
2021/09/07 09:38:15;;;;;;;;;14.00;12.25;;;;;26.28;39.65;101284.38;4995151;28;45474;-62
2021/09/07 09:40:41;;;;;;;;;16.00;14.75;;;;;26.33;39.55;101271.28;4994755;28;45315;-61
2021/09/07 09:43:26;;;;;;;;;18.00;15.00;;;;;26.49;39.15;101280.59;4996316;28;45341;-61
2021/09/07 09:45:52;;;;;;;;;19.00;14.75;;;;;26.58;39.06;101268.06;4995975;28;45317;-61
2021/09/07 09:48:25;;;;;;;;;20.50;17.00;;;;;26.71;38.88;101265.84;4996018;28;45369;-62
2021/09/07 09:50:52;;;;;;;;;14.50;14.50;;;;;26.83;37.86;101269.22;4996507;28;45615;-62
2021/09/07 09:53:20;;;;;;;;;12.75;12.00;;;;;26.91;38.16;101260.34;4996279;28;45363;-61
2021/09/07 09:55:47;;;;;;;;;12.00;11.50;;;;;27.04;37.79;101257.28;4994287;28;45343;-61
2021/09/07 09:58:17;;;;;;;;;18.00;16.00;;;;;27.20;37.85;101262.00;4978180;28;45421;-62
2021/09/07 10:00:47;;;;;;;;;13.00;12.25;;;;;27.31;36.85;101260.91;4995704;28;45461;-61
2021/09/07 10:03:14;;;;;;;;;17.25;14.75;;;;;27.34;37.07;101257.88;4995887;28;45527;-62
2021/09/07 10:05:43;;;;;;;;;16.25;14.50;;;;;27.40;37.51;101262.66;4993877;28;46880;-64
2021/09/07 10:08:11;;;;;;;;;17.75;13.00;;;;;27.46;37.25;101261.19;4995032;28;45223;-62
2021/09/07 10:10:43;;;;;;;;;18.25;17.00;;;;;27.51;37.24;101257.03;4995463;28;45216;-62
2021/09/07 10:13:16;;;;;;;;;18.00;17.75;;;;;27.62;37.50;101255.13;4995829;28;45294;-63
2021/09/07 10:15:47;;;;;;;;;15.00;13.50;;;;;27.68;36.32;101246.38;4995260;28;46165;-63
2021/09/07 10:24:20;;;;;;;;;17.25;17.25;;;;;27.76;36.33;101238.31;4984278;28;45351;-62
2021/09/07 10:26:38;;;;;;;;;41.00;36.00;;;;;27.83;35.80;101238.50;4992855;28;46160;-61
2021/09/07 10:29:07;;;;;;;;;24.00;22.50;;;;;27.88;36.17;101219.13;4994519;28;45434;-61
2021/09/07 10:31:49;;;;;;;;;21.75;15.25;;;;;27.96;35.63;101211.88;4995055;28;45475;-62
2021/09/07 10:34:19;;;;;;;;;20.75;20.00;;;;;28.03;35.58;101209.41;4994553;28;45527;-63
2021/09/07 10:37:00;;;;;;;;;17.25;16.00;;;;;28.17;35.01;101215.25;4994122;28;45317;-63
2021/09/07 10:39:38;;;;;;;;;15.00;13.25;;;;;28.20;34.27;101207.66;4992827;28;45325;-63
2021/09/07 10:42:05;;;;;;;;;16.25;16.25;;;;;28.21;35.02;101211.19;4993452;28;45334;-63
2021/09/07 10:44:31;;;;;;;;;19.00;15.25;;;;;28.21;33.86;101211.19;4993035;28;45515;-63
2021/09/07 10:46:57;;;;;;;;;16.00;14.75;;;;;28.18;33.21;101203.41;4994728;28;46090;-61
2021/09/07 10:49:23;;;;;;;;;22.25;20.75;;;;;28.18;34.20;101203.41;4993079;28;45536;-62
2021/09/07 10:52:04;;;;;;;;;14.00;14.00;;;;;28.28;34.32;101196.88;4994812;28;45410;-63
2021/09/07 10:54:31;;;;;;;;;14.50;13.75;;;;;28.38;33.61;101196.72;4993404;28;45600;-61
2021/09/07 10:56:58;;;;;;;;;28.75;27.75;;;;;28.43;34.30;101185.41;4994222;28;45433;-62
2021/09/07 10:59:44;;;;;;;;;22.25;21.00;;;;;28.52;34.11;101181.72;4994755;28;45433;-60
2021/09/07 11:02:34;;;;;;;;;19.00;18.75;;;;;28.64;33.64;101181.41;4994726;28;45955;-63
2021/09/07 11:05:02;;;;;;;;;19.00;17.00;;;;;28.76;33.74;101176.53;4993206;28;45512;-60
2021/09/07 11:07:40;;;;;;;;;24.25;19.00;;;;;28.89;33.46;101179.59;4993854;28;45194;-62
2021/09/07 11:10:18;;;;;;;;;18.75;16.50;;;;;28.93;33.64;101170.13;4994204;28;45416;-62
2021/09/07 11:12:54;;;;;;;;;27.75;26.50;;;;;28.88;33.52;101153.53;4994262;28;45291;-61